sensor_id;sensor_type;location;lat;lon;timestamp;temperature;humidity
66343;DHT22;53144;51.524;5.080;2022-07-06T00:01:26;11.98;82.56
66343;DHT22;53144;51.524;5.080;2022-07-06T00:03:51;11.73;83.73
66343;DHT22;53144;51.524;5.080;2022-07-06T00:06:17;11.47;83.86
66343;DHT22;53144;51.524;5.080;2022-07-06T00:08:42;11.37;85.04
66343;DHT22;53144;51.524;5.080;2022-07-06T00:11:08;11.46;84.98
66343;DHT22;53144;51.524;5.080;2022-07-06T00:13:34;11.54;84.30
66343;DHT22;53144;51.524;5.080;2022-07-06T00:15:59;11.54;83.83
66343;DHT22;53144;51.524;5.080;2022-07-06T00:18:24;11.43;84.23
66343;DHT22;53144;51.524;5.080;2022-07-06T00:20:50;11.26;85.12
66343;DHT22;53144;51.524;5.080;2022-07-06T00:23:15;11.15;85.84
66343;DHT22;53144;51.524;5.080;2022-07-06T00:25:40;11.19;85.59
66343;DHT22;53144;51.524;5.080;2022-07-06T00:28:06;11.18;84.78
66343;DHT22;53144;51.524;5.080;2022-07-06T00:30:31;11.19;85.39
66343;DHT22;53144;51.524;5.080;2022-07-06T00:32:57;11.22;85.49
66343;DHT22;53144;51.524;5.080;2022-07-06T00:35:24;11.11;85.28
66343;DHT22;53144;51.524;5.080;2022-07-06T00:37:50;11.19;85.18
66343;DHT22;53144;51.524;5.080;2022-07-06T00:40:16;11.19;84.99
66343;DHT22;53144;51.524;5.080;2022-07-06T00:42:42;11.19;84.80
66343;DHT22;53144;51.524;5.080;2022-07-06T00:45:09;11.09;84.75
66343;DHT22;53144;51.524;5.080;2022-07-06T00:47:34;10.85;85.81
66343;DHT22;53144;51.524;5.080;2022-07-06T00:50:01;10.71;86.21
66343;DHT22;53144;51.524;5.080;2022-07-06T00:52:56;10.54;86.96
66343;DHT22;53144;51.524;5.080;2022-07-06T00:55:23;10.48;87.74
66343;DHT22;53144;51.524;5.080;2022-07-06T00:57:50;10.38;87.86
66343;DHT22;53144;51.524;5.080;2022-07-06T01:00:18;10.47;88.57
66343;DHT22;53144;51.524;5.080;2022-07-06T01:02:44;10.50;88.93
66343;DHT22;53144;51.524;5.080;2022-07-06T01:05:11;10.56;88.69
66343;DHT22;53144;51.524;5.080;2022-07-06T01:07:39;10.65;88.25
66343;DHT22;53144;51.524;5.080;2022-07-06T01:10:05;10.74;87.71
66343;DHT22;53144;51.524;5.080;2022-07-06T01:12:31;10.72;88.04
66343;DHT22;53144;51.524;5.080;2022-07-06T01:14:56;10.64;88.40
66343;DHT22;53144;51.524;5.080;2022-07-06T01:17:23;10.60;87.94
66343;DHT22;53144;51.524;5.080;2022-07-06T01:19:48;10.58;88.01
66343;DHT22;53144;51.524;5.080;2022-07-06T01:22:14;10.54;88.09
66343;DHT22;53144;51.524;5.080;2022-07-06T01:24:39;10.46;88.69
66343;DHT22;53144;51.524;5.080;2022-07-06T01:27:05;10.37;89.18
66343;DHT22;53144;51.524;5.080;2022-07-06T01:29:31;10.33;89.46
66343;DHT22;53144;51.524;5.080;2022-07-06T01:31:57;10.32;89.59
66343;DHT22;53144;51.524;5.080;2022-07-06T01:34:22;10.44;89.34
66343;DHT22;53144;51.524;5.080;2022-07-06T01:36:48;10.51;89.29
66343;DHT22;53144;51.524;5.080;2022-07-06T01:39:13;10.50;89.46
66343;DHT22;53144;51.524;5.080;2022-07-06T01:41:39;10.47;89.45
66343;DHT22;53144;51.524;5.080;2022-07-06T01:44:05;10.53;89.63
66343;DHT22;53144;51.524;5.080;2022-07-06T01:46:30;10.61;88.89
66343;DHT22;53144;51.524;5.080;2022-07-06T01:48:55;10.47;88.99
66343;DHT22;53144;51.524;5.080;2022-07-06T01:51:21;10.43;88.61
66343;DHT22;53144;51.524;5.080;2022-07-06T01:53:46;10.30;88.66
66343;DHT22;53144;51.524;5.080;2022-07-06T01:56:12;10.20;89.22
66343;DHT22;53144;51.524;5.080;2022-07-06T01:58:38;10.27;89.14
66343;DHT22;53144;51.524;5.080;2022-07-06T02:01:11;10.10;89.15
66343;DHT22;53144;51.524;5.080;2022-07-06T02:03:37;10.07;89.50
66343;DHT22;53144;51.524;5.080;2022-07-06T02:06:03;10.02;89.61
66343;DHT22;53144;51.524;5.080;2022-07-06T02:08:31;9.96;90.09
66343;DHT22;53144;51.524;5.080;2022-07-06T02:10:56;10.02;90.24
66343;DHT22;53144;51.524;5.080;2022-07-06T02:13:21;10.03;90.39
66343;DHT22;53144;51.524;5.080;2022-07-06T02:15:47;10.09;90.50
66343;DHT22;53144;51.524;5.080;2022-07-06T02:18:12;10.06;90.00
66343;DHT22;53144;51.524;5.080;2022-07-06T02:20:38;10.17;90.07
66343;DHT22;53144;51.524;5.080;2022-07-06T02:23:03;10.17;89.79
66343;DHT22;53144;51.524;5.080;2022-07-06T02:25:28;10.10;90.12
66343;DHT22;53144;51.524;5.080;2022-07-06T02:27:54;10.00;89.44
66343;DHT22;53144;51.524;5.080;2022-07-06T02:30:19;9.93;90.50
66343;DHT22;53144;51.524;5.080;2022-07-06T02:32:44;9.90;90.13
66343;DHT22;53144;51.524;5.080;2022-07-06T02:35:10;9.99;90.68
66343;DHT22;53144;51.524;5.080;2022-07-06T02:37:35;10.06;90.51
66343;DHT22;53144;51.524;5.080;2022-07-06T02:40:01;10.05;91.03
66343;DHT22;53144;51.524;5.080;2022-07-06T02:42:26;10.03;90.55
66343;DHT22;53144;51.524;5.080;2022-07-06T02:44:52;9.98;90.28
66343;DHT22;53144;51.524;5.080;2022-07-06T02:47:18;9.99;90.54
66343;DHT22;53144;51.524;5.080;2022-07-06T02:49:43;9.95;90.54
66343;DHT22;53144;51.524;5.080;2022-07-06T02:52:08;9.96;90.37
66343;DHT22;53144;51.524;5.080;2022-07-06T02:54:34;9.92;90.42
66343;DHT22;53144;51.524;5.080;2022-07-06T02:56:59;9.92;90.49
66343;DHT22;53144;51.524;5.080;2022-07-06T02:59:24;9.86;90.57
66343;DHT22;53144;51.524;5.080;2022-07-06T03:01:50;9.85;90.73
66343;DHT22;53144;51.524;5.080;2022-07-06T03:04:15;9.92;91.12
66343;DHT22;53144;51.524;5.080;2022-07-06T03:06:41;9.93;90.46
66343;DHT22;53144;51.524;5.080;2022-07-06T03:09:06;9.99;90.01
66343;DHT22;53144;51.524;5.080;2022-07-06T03:11:31;10.07;90.26
66343;DHT22;53144;51.524;5.080;2022-07-06T03:14:02;10.17;89.36
66343;DHT22;53144;51.524;5.080;2022-07-06T03:16:28;10.07;89.93
66343;DHT22;53144;51.524;5.080;2022-07-06T03:18:53;10.00;89.73
66343;DHT22;53144;51.524;5.080;2022-07-06T03:21:19;9.95;89.57
66343;DHT22;53144;51.524;5.080;2022-07-06T03:23:44;9.98;90.34
66343;DHT22;53144;51.524;5.080;2022-07-06T03:26:09;9.92;89.65
66343;DHT22;53144;51.524;5.080;2022-07-06T03:28:35;9.90;90.22
66343;DHT22;53144;51.524;5.080;2022-07-06T03:31:00;9.96;90.55
66343;DHT22;53144;51.524;5.080;2022-07-06T03:33:25;9.98;90.32
66343;DHT22;53144;51.524;5.080;2022-07-06T03:35:51;9.85;90.79
66343;DHT22;53144;51.524;5.080;2022-07-06T03:38:16;9.68;90.25
66343;DHT22;53144;51.524;5.080;2022-07-06T03:40:41;9.62;91.14
66343;DHT22;53144;51.524;5.080;2022-07-06T03:43:07;9.58;90.79
66343;DHT22;53144;51.524;5.080;2022-07-06T03:45:32;9.58;90.61
66343;DHT22;53144;51.524;5.080;2022-07-06T03:47:57;9.55;90.98
66343;DHT22;53144;51.524;5.080;2022-07-06T03:50:23;9.62;91.37
66343;DHT22;53144;51.524;5.080;2022-07-06T03:52:48;9.57;91.03
66343;DHT22;53144;51.524;5.080;2022-07-06T03:55:14;9.71;90.67
66343;DHT22;53144;51.524;5.080;2022-07-06T03:57:39;9.75;90.98
66343;DHT22;53144;51.524;5.080;2022-07-06T04:00:06;9.77;90.31
66343;DHT22;53144;51.524;5.080;2022-07-06T04:02:31;9.79;90.33
66343;DHT22;53144;51.524;5.080;2022-07-06T04:04:57;9.75;90.60
66343;DHT22;53144;51.524;5.080;2022-07-06T04:07:22;9.74;91.02
66343;DHT22;53144;51.524;5.080;2022-07-06T04:09:48;9.74;91.47
66343;DHT22;53144;51.524;5.080;2022-07-06T04:12:13;9.77;90.75
66343;DHT22;53144;51.524;5.080;2022-07-06T04:14:38;9.75;90.97
66343;DHT22;53144;51.524;5.080;2022-07-06T04:17:04;9.79;91.10
66343;DHT22;53144;51.524;5.080;2022-07-06T04:19:49;9.89;90.91
66343;DHT22;53144;51.524;5.080;2022-07-06T04:22:15;9.95;90.87
66343;DHT22;53144;51.524;5.080;2022-07-06T04:24:40;9.93;91.56
66343;DHT22;53144;51.524;5.080;2022-07-06T04:27:05;9.96;91.14
66343;DHT22;53144;51.524;5.080;2022-07-06T04:29:31;10.02;90.66
66343;DHT22;53144;51.524;5.080;2022-07-06T04:31:56;10.00;90.84
66343;DHT22;53144;51.524;5.080;2022-07-06T04:34:21;10.10;91.20
66343;DHT22;53144;51.524;5.080;2022-07-06T04:36:47;10.09;90.94
66343;DHT22;53144;51.524;5.080;2022-07-06T04:39:12;10.09;91.29
66343;DHT22;53144;51.524;5.080;2022-07-06T04:41:37;10.23;91.52
66343;DHT22;53144;51.524;5.080;2022-07-06T04:44:03;10.43;91.37
66343;DHT22;53144;51.524;5.080;2022-07-06T04:46:28;10.54;91.31
66343;DHT22;53144;51.524;5.080;2022-07-06T04:48:54;10.68;90.77
66343;DHT22;53144;51.524;5.080;2022-07-06T04:51:19;10.79;90.14
66343;DHT22;53144;51.524;5.080;2022-07-06T04:53:44;10.85;90.48
66343;DHT22;53144;51.524;5.080;2022-07-06T04:56:11;10.98;90.47
66343;DHT22;53144;51.524;5.080;2022-07-06T04:58:36;11.14;90.65
66343;DHT22;53144;51.524;5.080;2022-07-06T05:01:01;11.25;90.59
66343;DHT22;53144;51.524;5.080;2022-07-06T05:03:27;11.40;90.89
66343;DHT22;53144;51.524;5.080;2022-07-06T05:05:52;11.57;90.91
66343;DHT22;53144;51.524;5.080;2022-07-06T05:08:17;11.70;90.75
66343;DHT22;53144;51.524;5.080;2022-07-06T05:10:43;11.97;91.10
66343;DHT22;53144;51.524;5.080;2022-07-06T05:13:08;12.17;90.95
66343;DHT22;53144;51.524;5.080;2022-07-06T05:15:33;12.25;91.02
66343;DHT22;53144;51.524;5.080;2022-07-06T05:17:59;12.46;90.44
66343;DHT22;53144;51.524;5.080;2022-07-06T05:20:24;12.56;90.18
66343;DHT22;53144;51.524;5.080;2022-07-06T05:22:49;12.66;89.78
66343;DHT22;53144;51.524;5.080;2022-07-06T05:25:15;12.80;89.11
66343;DHT22;53144;51.524;5.080;2022-07-06T05:27:40;13.00;86.65
66343;DHT22;53144;51.524;5.080;2022-07-06T05:30:06;13.18;85.86
66343;DHT22;53144;51.524;5.080;2022-07-06T05:32:31;13.35;83.76
66343;DHT22;53144;51.524;5.080;2022-07-06T05:34:56;13.44;85.07
66343;DHT22;53144;51.524;5.080;2022-07-06T05:37:22;13.59;82.95
66343;DHT22;53144;51.524;5.080;2022-07-06T05:39:47;13.68;82.94
66343;DHT22;53144;51.524;5.080;2022-07-06T05:42:14;13.78;83.33
66343;DHT22;53144;51.524;5.080;2022-07-06T05:44:39;14.00;81.29
66343;DHT22;53144;51.524;5.080;2022-07-06T05:47:05;14.10;81.22
66343;DHT22;53144;51.524;5.080;2022-07-06T05:49:49;14.13;81.12
66343;DHT22;53144;51.524;5.080;2022-07-06T05:52:33;14.27;79.53
66343;DHT22;53144;51.524;5.080;2022-07-06T05:54:58;14.37;80.82
66343;DHT22;53144;51.524;5.080;2022-07-06T05:57:24;14.37;81.42
66343;DHT22;53144;51.524;5.080;2022-07-06T05:59:49;14.44;81.66
66343;DHT22;53144;51.524;5.080;2022-07-06T06:02:14;14.42;81.31
66343;DHT22;53144;51.524;5.080;2022-07-06T06:04:40;14.50;79.85
66343;DHT22;53144;51.524;5.080;2022-07-06T06:07:05;14.50;79.88
66343;DHT22;53144;51.524;5.080;2022-07-06T06:09:31;14.63;78.39
66343;DHT22;53144;51.524;5.080;2022-07-06T06:11:56;14.75;79.49
66343;DHT22;53144;51.524;5.080;2022-07-06T06:14:21;14.87;78.06
66343;DHT22;53144;51.524;5.080;2022-07-06T06:16:47;14.93;77.88
66343;DHT22;53144;51.524;5.080;2022-07-06T06:19:12;15.03;77.38
66343;DHT22;53144;51.524;5.080;2022-07-06T06:21:38;15.10;77.20
66343;DHT22;53144;51.524;5.080;2022-07-06T06:24:03;15.20;77.22
66343;DHT22;53144;51.524;5.080;2022-07-06T06:26:28;15.22;77.12
66343;DHT22;53144;51.524;5.080;2022-07-06T06:28:54;15.42;76.85
66343;DHT22;53144;51.524;5.080;2022-07-06T06:31:19;15.49;76.28
66343;DHT22;53144;51.524;5.080;2022-07-06T06:33:45;15.58;75.97
66343;DHT22;53144;51.524;5.080;2022-07-06T06:36:10;15.58;75.90
66343;DHT22;53144;51.524;5.080;2022-07-06T06:38:35;15.58;75.41
66343;DHT22;53144;51.524;5.080;2022-07-06T06:41:01;15.60;76.01
66343;DHT22;53144;51.524;5.080;2022-07-06T06:43:27;15.63;74.78
66343;DHT22;53144;51.524;5.080;2022-07-06T06:45:52;15.67;74.22
66343;DHT22;53144;51.524;5.080;2022-07-06T06:48:18;15.66;74.96
66343;DHT22;53144;51.524;5.080;2022-07-06T06:50:45;15.77;74.56
66343;DHT22;53144;51.524;5.080;2022-07-06T06:53:10;15.77;74.28
66343;DHT22;53144;51.524;5.080;2022-07-06T06:55:36;15.97;76.61
66343;DHT22;53144;51.524;5.080;2022-07-06T06:58:01;16.04;75.03
66343;DHT22;53144;51.524;5.080;2022-07-06T07:00:27;16.00;75.22
66343;DHT22;53144;51.524;5.080;2022-07-06T07:02:52;16.09;73.75
66343;DHT22;53144;51.524;5.080;2022-07-06T07:05:18;16.16;74.54
66343;DHT22;53144;51.524;5.080;2022-07-06T07:07:43;16.29;72.17
66343;DHT22;53144;51.524;5.080;2022-07-06T07:10:09;16.24;71.66
66343;DHT22;53144;51.524;5.080;2022-07-06T07:12:34;16.48;69.94
66343;DHT22;53144;51.524;5.080;2022-07-06T07:15:00;16.57;73.06
66343;DHT22;53144;51.524;5.080;2022-07-06T07:17:26;16.56;68.60
66343;DHT22;53144;51.524;5.080;2022-07-06T07:19:51;16.57;70.34
66343;DHT22;53144;51.524;5.080;2022-07-06T07:22:17;16.43;69.20
66343;DHT22;53144;51.524;5.080;2022-07-06T07:24:42;16.62;68.19
66343;DHT22;53144;51.524;5.080;2022-07-06T07:27:08;16.93;69.02
66343;DHT22;53144;51.524;5.080;2022-07-06T07:29:33;17.22;67.86
66343;DHT22;53144;51.524;5.080;2022-07-06T07:31:58;17.42;67.68
66343;DHT22;53144;51.524;5.080;2022-07-06T07:34:24;17.14;65.85
66343;DHT22;53144;51.524;5.080;2022-07-06T07:36:49;16.99;66.01
66343;DHT22;53144;51.524;5.080;2022-07-06T07:39:17;17.31;66.29
66343;DHT22;53144;51.524;5.080;2022-07-06T07:41:42;17.34;64.75
66343;DHT22;53144;51.524;5.080;2022-07-06T07:44:08;17.51;65.13
66343;DHT22;53144;51.524;5.080;2022-07-06T07:46:33;17.58;62.42
66343;DHT22;53144;51.524;5.080;2022-07-06T07:48:59;17.46;62.08
66343;DHT22;53144;51.524;5.080;2022-07-06T07:51:24;17.63;63.14
66343;DHT22;53144;51.524;5.080;2022-07-06T07:53:49;17.90;63.82
66343;DHT22;53144;51.524;5.080;2022-07-06T07:56:15;18.10;63.40
66343;DHT22;53144;51.524;5.080;2022-07-06T07:58:40;17.63;62.92
66343;DHT22;53144;51.524;5.080;2022-07-06T08:01:06;17.76;64.24
66343;DHT22;53144;51.524;5.080;2022-07-06T08:03:31;17.52;62.45
66343;DHT22;53144;51.524;5.080;2022-07-06T08:06:00;17.28;64.30
66343;DHT22;53144;51.524;5.080;2022-07-06T08:08:37;17.25;63.74
66343;DHT22;53144;51.524;5.080;2022-07-06T08:11:02;17.01;63.71
66343;DHT22;53144;51.524;5.080;2022-07-06T08:13:27;17.07;63.49
66343;DHT22;53144;51.524;5.080;2022-07-06T08:15:53;17.08;63.94
66343;DHT22;53144;51.524;5.080;2022-07-06T08:18:18;17.34;62.70
66343;DHT22;53144;51.524;5.080;2022-07-06T08:20:46;17.58;61.45
66343;DHT22;53144;51.524;5.080;2022-07-06T08:23:11;17.81;60.60
66343;DHT22;53144;51.524;5.080;2022-07-06T08:25:37;18.06;63.51
66343;DHT22;53144;51.524;5.080;2022-07-06T08:28:02;17.99;60.56
66343;DHT22;53144;51.524;5.080;2022-07-06T08:30:28;17.63;59.25
66343;DHT22;53144;51.524;5.080;2022-07-06T08:32:56;17.66;61.43
66343;DHT22;53144;51.524;5.080;2022-07-06T08:35:21;17.58;66.14
66343;DHT22;53144;51.524;5.080;2022-07-06T08:37:56;17.82;61.75
66343;DHT22;53144;51.524;5.080;2022-07-06T08:40:22;17.93;60.38
66343;DHT22;53144;51.524;5.080;2022-07-06T08:42:53;17.89;61.59
66343;DHT22;53144;51.524;5.080;2022-07-06T08:45:19;18.21;60.46
66343;DHT22;53144;51.524;5.080;2022-07-06T08:47:45;18.09;62.24
66343;DHT22;53144;51.524;5.080;2022-07-06T08:50:13;18.20;60.58
66343;DHT22;53144;51.524;5.080;2022-07-06T08:52:40;18.24;61.12
66343;DHT22;53144;51.524;5.080;2022-07-06T08:55:05;18.21;59.98
66343;DHT22;53144;51.524;5.080;2022-07-06T08:57:31;18.24;59.42
66343;DHT22;53144;51.524;5.080;2022-07-06T08:59:56;18.73;60.66
66343;DHT22;53144;51.524;5.080;2022-07-06T09:02:24;18.62;57.53
66343;DHT22;53144;51.524;5.080;2022-07-06T09:04:54;18.52;58.62
66343;DHT22;53144;51.524;5.080;2022-07-06T09:07:21;18.38;57.76
66343;DHT22;53144;51.524;5.080;2022-07-06T09:09:47;18.87;58.72
66343;DHT22;53144;51.524;5.080;2022-07-06T09:12:12;18.64;55.81
66343;DHT22;53144;51.524;5.080;2022-07-06T09:14:41;18.71;58.95
66343;DHT22;53144;51.524;5.080;2022-07-06T09:17:06;18.64;58.61
66343;DHT22;53144;51.524;5.080;2022-07-06T09:19:33;18.99;57.18
66343;DHT22;53144;51.524;5.080;2022-07-06T09:22:00;19.12;55.52
66343;DHT22;53144;51.524;5.080;2022-07-06T09:24:25;18.91;56.51
66343;DHT22;53144;51.524;5.080;2022-07-06T09:26:54;18.72;56.73
66343;DHT22;53144;51.524;5.080;2022-07-06T09:29:32;18.45;55.57
66343;DHT22;53144;51.524;5.080;2022-07-06T09:32:19;18.47;54.68
66343;DHT22;53144;51.524;5.080;2022-07-06T09:34:47;18.51;55.47
66343;DHT22;53144;51.524;5.080;2022-07-06T09:37:13;18.69;56.04
66343;DHT22;53144;51.524;5.080;2022-07-06T09:39:39;18.85;57.20
66343;DHT22;53144;51.524;5.080;2022-07-06T09:42:06;18.98;55.59
66343;DHT22;53144;51.524;5.080;2022-07-06T09:44:40;19.02;56.49
66343;DHT22;53144;51.524;5.080;2022-07-06T09:47:11;18.95;54.71
66343;DHT22;53144;51.524;5.080;2022-07-06T09:49:38;18.85;55.44
66343;DHT22;53144;51.524;5.080;2022-07-06T09:52:08;19.19;54.47
66343;DHT22;53144;51.524;5.080;2022-07-06T09:54:35;18.78;54.89
66343;DHT22;53144;51.524;5.080;2022-07-06T09:57:01;19.00;59.51
66343;DHT22;53144;51.524;5.080;2022-07-06T09:59:29;19.12;55.09
66343;DHT22;53144;51.524;5.080;2022-07-06T10:01:56;18.87;54.30
66343;DHT22;53144;51.524;5.080;2022-07-06T10:04:23;18.82;51.99
66343;DHT22;53144;51.524;5.080;2022-07-06T10:06:50;19.10;53.39
66343;DHT22;53144;51.524;5.080;2022-07-06T10:09:16;19.39;53.80
66343;DHT22;53144;51.524;5.080;2022-07-06T10:14:24;18.96;51.00
66343;DHT22;53144;51.524;5.080;2022-07-06T10:16:50;19.26;50.90
66343;DHT22;53144;51.524;5.080;2022-07-06T10:19:17;19.15;51.02
66343;DHT22;53144;51.524;5.080;2022-07-06T10:21:49;19.45;51.33
66343;DHT22;53144;51.524;5.080;2022-07-06T10:24:23;20.02;48.99
66343;DHT22;53144;51.524;5.080;2022-07-06T10:26:49;20.73;48.18
66343;DHT22;53144;51.524;5.080;2022-07-06T10:29:17;20.66;48.00
66343;DHT22;53144;51.524;5.080;2022-07-06T10:31:47;20.94;47.16
66343;DHT22;53144;51.524;5.080;2022-07-06T10:34:15;20.67;50.31
66343;DHT22;53144;51.524;5.080;2022-07-06T10:36:51;20.39;51.85
66343;DHT22;53144;51.524;5.080;2022-07-06T10:39:35;20.28;48.96
66343;DHT22;53144;51.524;5.080;2022-07-06T10:42:43;20.40;50.53
66343;DHT22;53144;51.524;5.080;2022-07-06T10:45:13;19.46;48.08
66343;DHT22;53144;51.524;5.080;2022-07-06T10:47:42;19.74;49.77
66343;DHT22;53144;51.524;5.080;2022-07-06T10:50:09;19.97;50.95
66343;DHT22;53144;51.524;5.080;2022-07-06T10:52:53;20.35;50.09
66343;DHT22;53144;51.524;5.080;2022-07-06T10:55:28;20.81;52.10
66343;DHT22;53144;51.524;5.080;2022-07-06T10:57:55;20.70;46.64
66343;DHT22;53144;51.524;5.080;2022-07-06T11:00:20;21.52;52.64
66343;DHT22;53144;51.524;5.080;2022-07-06T11:02:46;21.86;45.95
66343;DHT22;53144;51.524;5.080;2022-07-06T11:05:11;21.63;46.33
66343;DHT22;53144;51.524;5.080;2022-07-06T11:07:49;23.20;42.62
66343;DHT22;53144;51.524;5.080;2022-07-06T11:10:18;22.64;47.11
66343;DHT22;53144;51.524;5.080;2022-07-06T11:12:46;23.16;46.36
66343;DHT22;53144;51.524;5.080;2022-07-06T11:15:12;23.16;45.64
66343;DHT22;53144;51.524;5.080;2022-07-06T11:17:37;24.08;44.43
66343;DHT22;53144;51.524;5.080;2022-07-06T11:20:10;24.76;39.93
66343;DHT22;53144;51.524;5.080;2022-07-06T11:22:37;24.88;41.16
66343;DHT22;53144;51.524;5.080;2022-07-06T11:25:06;24.36;41.12
66343;DHT22;53144;51.524;5.080;2022-07-06T11:27:34;24.73;41.81
66343;DHT22;53144;51.524;5.080;2022-07-06T11:30:00;22.40;44.00
66343;DHT22;53144;51.524;5.080;2022-07-06T11:32:26;22.23;43.85
66343;DHT22;53144;51.524;5.080;2022-07-06T11:34:52;23.63;40.49
66343;DHT22;53144;51.524;5.080;2022-07-06T11:37:18;24.22;40.27
66343;DHT22;53144;51.524;5.080;2022-07-06T11:39:45;24.32;39.55
66343;DHT22;53144;51.524;5.080;2022-07-06T11:42:16;25.04;39.30
66343;DHT22;53144;51.524;5.080;2022-07-06T11:44:42;24.48;41.47
66343;DHT22;53144;51.524;5.080;2022-07-06T11:47:09;25.14;42.54
66343;DHT22;53144;51.524;5.080;2022-07-06T11:49:36;24.52;42.47
66343;DHT22;53144;51.524;5.080;2022-07-06T11:52:07;24.51;41.95
66343;DHT22;53144;51.524;5.080;2022-07-06T11:54:33;25.21;39.47
66343;DHT22;53144;51.524;5.080;2022-07-06T11:56:59;23.91;41.29
66343;DHT22;53144;51.524;5.080;2022-07-06T11:59:35;21.97;44.49
66343;DHT22;53144;51.524;5.080;2022-07-06T12:02:09;22.06;47.12
66343;DHT22;53144;51.524;5.080;2022-07-06T12:04:37;24.02;45.09
66343;DHT22;53144;51.524;5.080;2022-07-06T12:07:16;24.86;39.29
66343;DHT22;53144;51.524;5.080;2022-07-06T12:09:44;25.31;37.66
66343;DHT22;53144;51.524;5.080;2022-07-06T12:12:10;25.46;38.98
66343;DHT22;53144;51.524;5.080;2022-07-06T12:14:38;26.26;40.29
66343;DHT22;53144;51.524;5.080;2022-07-06T12:17:10;25.94;37.58
66343;DHT22;53144;51.524;5.080;2022-07-06T12:19:37;26.91;36.90
66343;DHT22;53144;51.524;5.080;2022-07-06T12:22:03;27.35;35.32
66343;DHT22;53144;51.524;5.080;2022-07-06T12:24:30;26.40;38.04
66343;DHT22;53144;51.524;5.080;2022-07-06T12:26:57;26.39;35.98
66343;DHT22;53144;51.524;5.080;2022-07-06T12:29:23;26.92;35.84
66343;DHT22;53144;51.524;5.080;2022-07-06T12:31:56;26.77;37.03
66343;DHT22;53144;51.524;5.080;2022-07-06T12:34:26;26.85;36.32
66343;DHT22;53144;51.524;5.080;2022-07-06T12:36:57;23.94;39.80
66343;DHT22;53144;51.524;5.080;2022-07-06T12:39:27;25.99;37.55
66343;DHT22;53144;51.524;5.080;2022-07-06T12:41:56;25.90;38.84
66343;DHT22;53144;51.524;5.080;2022-07-06T12:44:26;27.10;37.00
66343;DHT22;53144;51.524;5.080;2022-07-06T12:47:08;25.79;36.99
66343;DHT22;53144;51.524;5.080;2022-07-06T12:49:35;26.51;38.71
66343;DHT22;53144;51.524;5.080;2022-07-06T12:52:10;25.42;36.88
66343;DHT22;53144;51.524;5.080;2022-07-06T12:54:44;24.88;39.55
66343;DHT22;53144;51.524;5.080;2022-07-06T12:57:12;23.16;42.20
66343;DHT22;53144;51.524;5.080;2022-07-06T12:59:48;24.32;42.55
66343;DHT22;53144;51.524;5.080;2022-07-06T13:02:31;25.41;39.36
66343;DHT22;53144;51.524;5.080;2022-07-06T13:05:04;25.39;37.88
66343;DHT22;53144;51.524;5.080;2022-07-06T13:07:32;25.37;39.51
66343;DHT22;53144;51.524;5.080;2022-07-06T13:10:02;25.21;38.92
66343;DHT22;53144;51.524;5.080;2022-07-06T13:12:27;23.45;42.27
66343;DHT22;53144;51.524;5.080;2022-07-06T13:14:53;22.81;43.99
66343;DHT22;53144;51.524;5.080;2022-07-06T13:17:18;23.16;43.80
66343;DHT22;53144;51.524;5.080;2022-07-06T13:19:44;22.62;45.75
66343;DHT22;53144;51.524;5.080;2022-07-06T13:22:10;23.05;45.18
66343;DHT22;53144;51.524;5.080;2022-07-06T13:24:36;23.13;44.54
66343;DHT22;53144;51.524;5.080;2022-07-06T13:27:02;23.30;44.48
66343;DHT22;53144;51.524;5.080;2022-07-06T13:29:28;23.43;42.94
66343;DHT22;53144;51.524;5.080;2022-07-06T13:31:53;23.75;46.69
66343;DHT22;53144;51.524;5.080;2022-07-06T13:34:19;23.20;45.31
66343;DHT22;53144;51.524;5.080;2022-07-06T13:36:44;22.91;45.69
66343;DHT22;53144;51.524;5.080;2022-07-06T13:39:13;23.71;45.67
66343;DHT22;53144;51.524;5.080;2022-07-06T13:41:38;23.70;46.04
66343;DHT22;53144;51.524;5.080;2022-07-06T13:44:04;24.16;43.54
66343;DHT22;53144;51.524;5.080;2022-07-06T13:46:30;24.14;42.52
66343;DHT22;53144;51.524;5.080;2022-07-06T13:48:56;23.79;44.17
66343;DHT22;53144;51.524;5.080;2022-07-06T13:51:23;23.79;44.06
66343;DHT22;53144;51.524;5.080;2022-07-06T13:53:49;22.64;44.53
66343;DHT22;53144;51.524;5.080;2022-07-06T13:56:16;22.58;45.13
66343;DHT22;53144;51.524;5.080;2022-07-06T13:58:41;22.82;45.66
66343;DHT22;53144;51.524;5.080;2022-07-06T14:01:07;22.60;45.97
66343;DHT22;53144;51.524;5.080;2022-07-06T14:03:33;23.27;47.24
66343;DHT22;53144;51.524;5.080;2022-07-06T14:05:59;23.42;44.49
66343;DHT22;53144;51.524;5.080;2022-07-06T14:08:26;22.27;46.75
66343;DHT22;53144;51.524;5.080;2022-07-06T14:10:52;22.72;47.28
66343;DHT22;53144;51.524;5.080;2022-07-06T14:13:18;22.81;47.39
66343;DHT22;53144;51.524;5.080;2022-07-06T14:15:44;23.10;45.61
66343;DHT22;53144;51.524;5.080;2022-07-06T14:18:10;23.89;45.20
66343;DHT22;53144;51.524;5.080;2022-07-06T14:20:35;23.68;47.86
66343;DHT22;53144;51.524;5.080;2022-07-06T14:23:00;24.24;43.84
66343;DHT22;53144;51.524;5.080;2022-07-06T14:25:26;24.48;44.72
66343;DHT22;53144;51.524;5.080;2022-07-06T14:27:54;24.32;43.43
66343;DHT22;53144;51.524;5.080;2022-07-06T14:30:20;23.20;46.47
66343;DHT22;53144;51.524;5.080;2022-07-06T14:32:51;22.89;46.87
66343;DHT22;53144;51.524;5.080;2022-07-06T14:35:17;23.31;45.93
66343;DHT22;53144;51.524;5.080;2022-07-06T14:37:42;23.16;47.38
66343;DHT22;53144;51.524;5.080;2022-07-06T14:40:08;22.40;46.82
66343;DHT22;53144;51.524;5.080;2022-07-06T14:42:34;22.75;47.93
66343;DHT22;53144;51.524;5.080;2022-07-06T14:45:00;22.73;47.93
66343;DHT22;53144;51.524;5.080;2022-07-06T14:47:25;22.57;49.73
66343;DHT22;53144;51.524;5.080;2022-07-06T14:49:51;22.94;47.49
66343;DHT22;53144;51.524;5.080;2022-07-06T14:52:18;23.08;48.08
66343;DHT22;53144;51.524;5.080;2022-07-06T14:54:43;23.24;47.25
66343;DHT22;53144;51.524;5.080;2022-07-06T14:57:09;23.08;47.80
66343;DHT22;53144;51.524;5.080;2022-07-06T14:59:35;23.26;49.02
66343;DHT22;53144;51.524;5.080;2022-07-06T15:02:01;23.33;47.59
66343;DHT22;53144;51.524;5.080;2022-07-06T15:04:26;23.33;48.57
66343;DHT22;53144;51.524;5.080;2022-07-06T15:06:52;23.10;48.38
66343;DHT22;53144;51.524;5.080;2022-07-06T15:09:18;23.45;49.19
66343;DHT22;53144;51.524;5.080;2022-07-06T15:11:43;23.49;47.39
66343;DHT22;53144;51.524;5.080;2022-07-06T15:14:10;23.61;47.97
66343;DHT22;53144;51.524;5.080;2022-07-06T15:16:36;23.24;49.88
66343;DHT22;53144;51.524;5.080;2022-07-06T15:19:01;22.60;50.33
66343;DHT22;53144;51.524;5.080;2022-07-06T15:21:27;22.48;52.33
66343;DHT22;53144;51.524;5.080;2022-07-06T15:23:52;21.89;52.12
66343;DHT22;53144;51.524;5.080;2022-07-06T15:26:17;21.76;54.11
66343;DHT22;53144;51.524;5.080;2022-07-06T15:28:43;21.85;54.23
66343;DHT22;53144;51.524;5.080;2022-07-06T15:31:08;21.49;54.58
66343;DHT22;53144;51.524;5.080;2022-07-06T15:33:34;21.44;54.69